Aeroporto :
LOGIN :

Iscrizione | Disclaimer

   EN    FR    IT 

 










Sommario :    VFR   VFR Marginale   IFR   IFR Intensivo   IFR Molto Intensivo
Visibilità : 
Base nubi : 
>= 8 km
>= 3000ft
5 / 8 km
1000 / 3000 ft
1500m / 5 km
500 / 1000 ft
800 / 1500m
200 / 500 ft
< 800m
< 200 ft
Simboli :   Temporali  Nebbia  Neve Forte  Precipitazioni Forti  Vento > 20 kt
SIGMETs :   Varie  Temporali  Ghiacco  Turbolenza  Onda orograficha  Ceneri Vulcaniche







- Altitudine del aeroporto : 302 ft
- Codice IATA : CGN


EDDK - Cologne Bonn

ULTIMO METAR :
  • 221250Z 12004KT 050V210 CAVOK 26/09 Q1025 NOSIG

METARs OBSOLETI :
  • 221220Z VRB04KT CAVOK 25/08 Q1025 NOSIG
  • 221150Z 21008KT 120V250 CAVOK 25/09 Q1025 NOSIG
  • 221120Z 18009KT CAVOK 24/08 Q1025 NOSIG
  • 221050Z 20008KT 160V250 CAVOK 24/09 Q1026 NOSIG
  • 221020Z 16005KT 080V240 CAVOK 24/09 Q1026 NOSIG

TAF TAF EDDK
Valido dal 22 a 12 ore il 23 a 18 ore UTC


221100Z 2212/2318 16005KT CAVOK
BECMG 2215/2218 VRB03KT
BECMG 2309/2312 04005KT
Nessun NOTAM noto per questo aeroporto.



MetMap, La meteo Aeronautica in un colpo d'occhio ! - Copyright ORBIFLY Dicembre 2007 - Disclaimer

ORBIFLY MET'MAP TEAM :

Programmazione e sviluppo : Alexandra Zaïnal
Concezione e sviluppo : Baudouin d'Aumeries
Co-Programmazione e sviluppo : Marc-Olivier Méhu
Supporto tecnico e logistico : Manuel Goepfert
Aiuto per la traduzione : Arnaldo La Scala

Contatto : metmap@orbifly.com




FONTI E CREDITI :

   NOAA